Time;durP1;ratioP1;P1;durP2;ratioP2;P2;SDS_P1;SDS_P2;PMS_P1;PMS_P2;Temp;Humidity;BMP_temperature;BMP_pressure;BME280_temperature;BME280_humidity;BME280_pressure;Samples;Min_cycle;Max_cycle;Signal;HPM_P1;HPM_P2
2023/09/15 00:01:51;;;;;;;5.22;2.30;;;;;;;14.30;88.29;100927.59;5043594;28;20058;-45
2023/09/15 00:04:18;;;;;;;4.82;3.20;;;;;;;14.25;88.42;100925.91;5044543;28;20128;-45
2023/09/15 00:06:46;;;;;;;4.72;2.05;;;;;;;14.24;88.47;100929.88;5041547;28;20040;-45
2023/09/15 00:09:15;;;;;;;20.67;11.18;;;;;;;14.22;88.56;100923.03;5050496;28;20126;-45
2023/09/15 00:11:42;;;;;;;8.95;5.30;;;;;;;14.19;88.78;100926.56;5062879;28;20080;-45
2023/09/15 00:14:11;;;;;;;24.55;14.43;;;;;;;14.17;88.82;100931.69;5055746;28;20049;-47
2023/09/15 00:16:44;;;;;;;13.50;7.80;;;;;;;14.15;89.04;100925.66;5053633;28;20052;-46
2023/09/15 00:19:14;;;;;;;12.70;7.25;;;;;;;14.15;89.11;100920.91;5053756;28;20049;-46
2023/09/15 00:21:47;;;;;;;6.55;3.00;;;;;;;14.14;89.20;100924.09;5052667;28;20045;-45
2023/09/15 00:24:15;;;;;;;4.28;2.35;;;;;;;14.11;89.27;100919.25;5053958;28;20509;-45
2023/09/15 00:26:43;;;;;;;47.03;28.05;;;;;;;14.11;89.43;100919.25;5054597;28;20038;-46
2023/09/15 00:29:11;;;;;;;37.03;21.88;;;;;;;14.09;89.51;100914.00;5051791;28;20399;-46
2023/09/15 00:31:40;;;;;;;8.98;3.55;;;;;;;14.08;89.47;100908.81;5054100;28;20136;-45
2023/09/15 00:34:06;;;;;;;19.38;8.80;;;;;;;14.07;89.45;100907.19;5054421;28;20064;-46
2023/09/15 00:36:33;;;;;;;11.73;6.50;;;;;;;14.03;89.72;100905.13;5053005;28;20123;-46
2023/09/15 00:39:01;;;;;;;4.30;2.42;;;;;;;14.02;89.92;100892.41;5053501;28;20095;-49
2023/09/15 00:41:28;;;;;;;4.75;3.13;;;;;;;14.01;89.87;100899.13;5052933;28;20096;-46
2023/09/15 00:43:55;;;;;;;9.88;4.70;;;;;;;14.02;89.93;100900.75;5053038;28;20487;-47
2023/09/15 00:46:22;;;;;;;7.45;3.20;;;;;;;14.03;90.12;100890.44;5066651;28;20044;-46
2023/09/15 00:48:50;;;;;;;10.20;3.45;;;;;;;14.03;90.17;100902.34;5052937;28;20053;-46
2023/09/15 00:51:18;;;;;;;8.02;3.03;;;;;;;14.03;90.22;100896.78;5048498;28;20114;-46
2023/09/15 00:53:45;;;;;;;4.88;3.03;;;;;;;14.01;90.40;100888.00;5054264;28;20048;-47
2023/09/15 00:56:13;;;;;;;6.15;3.30;;;;;;;14.03;90.24;100890.44;5039133;28;20118;-48
2023/09/15 00:58:40;;;;;;;5.95;3.45;;;;;;;14.01;90.23;100882.44;5048913;28;20040;-48
2023/09/15 01:01:08;;;;;;;5.15;3.10;;;;;;;14.01;90.36;100876.88;5044165;28;20065;-47
2023/09/15 01:03:42;;;;;;;6.20;3.10;;;;;;;13.98;90.53;100883.16;5054294;28;20041;-49
2023/09/15 01:06:11;;;;;;;8.25;4.15;;;;;;;13.96;90.81;100882.72;5049971;28;20399;-46
2023/09/15 01:08:38;;;;;;;10.48;3.42;;;;;;;13.94;90.73;100885.06;5048326;28;20084;-46
2023/09/15 01:11:05;;;;;;;5.03;2.95;;;;;;;13.94;91.08;100873.13;5049178;28;20041;-45
2023/09/15 01:13:35;;;;;;;6.20;2.60;;;;;;;13.93;91.08;100875.09;5047070;28;20467;-46
2023/09/15 01:16:14;;;;;;;4.80;2.78;;;;;;;13.93;91.01;100871.50;5048957;28;20044;-45
2023/09/15 01:18:51;;;;;;;7.68;3.35;;;;;;;13.93;91.26;100863.97;5044594;28;20088;-47
2023/09/15 01:21:36;;;;;;;4.10;2.92;;;;;;;13.94;91.07;100865.59;5050550;28;20051;-45
2023/09/15 01:24:42;;;;;;;5.13;3.47;;;;;;;13.94;91.19;100860.03;5020957;28;20057;-47
2023/09/15 01:27:32;;;;;;;4.65;2.47;;;;;;;13.92;91.21;100867.94;5011582;28;20053;-47
2023/09/15 01:30:00;;;;;;;10.27;3.50;;;;;;;13.93;91.39;100863.16;5012997;28;20619;-47
2023/09/15 01:32:28;;;;;;;5.43;2.67;;;;;;;13.93;91.37;100863.97;5011886;28;20132;-46
2023/09/15 01:34:55;;;;;;;6.40;2.38;;;;;;;13.92;91.61;100862.38;5012474;28;20544;-47
2023/09/15 01:37:22;;;;;;;4.85;2.38;;;;;;;13.93;91.83;100871.50;5010640;28;20055;-46
2023/09/15 01:39:50;;;;;;;3.80;2.33;;;;;;;13.92;91.94;100862.38;5012680;28;21257;-47
2023/09/15 01:42:18;;;;;;;3.47;2.00;;;;;;;13.90;91.97;100853.56;5011542;28;20059;-49
2023/09/15 01:44:45;;;;;;;4.13;1.98;;;;;;;13.91;92.03;100855.19;5011222;28;20438;-49
2023/09/15 01:47:17;;;;;;;5.07;2.05;;;;;;;13.93;91.97;100841.69;5017063;28;20037;-46
2023/09/15 01:49:45;;;;;;;2.88;2.20;;;;;;;13.92;91.87;100842.06;5047550;28;20540;-47
2023/09/15 01:52:13;;;;;;;8.23;3.42;;;;;;;13.91;91.96;100848.81;5053252;28;20159;-46
2023/09/15 01:54:40;;;;;;;18.75;8.07;;;;;;;13.91;92.10;100865.50;5051374;28;20719;-47
2023/09/15 01:57:07;;;;;;;23.30;9.30;;;;;;;13.89;92.05;100868.66;5045262;28;20068;-46
2023/09/15 01:59:34;;;;;;;5.80;2.35;;;;;;;13.89;92.18;100867.84;5041596;28;20048;-45
2023/09/15 02:02:01;;;;;;;6.03;2.05;;;;;;;13.87;92.22;100868.19;5042604;28;20053;-52
2023/09/15 02:04:28;;;;;;;3.17;1.90;;;;;;;13.86;92.28;100861.03;5046725;28;20075;-45
2023/09/15 02:06:54;;;;;;;7.25;1.83;;;;;;;13.82;92.14;100860.13;5047191;28;20053;-46
2023/09/15 02:09:22;;;;;;;7.05;2.05;;;;;;;13.80;92.41;100854.13;5048517;28;20052;-46
2023/09/15 02:11:49;;;;;;;3.35;1.80;;;;;;;13.79;92.54;100862.88;5051861;28;20071;-49
2023/09/15 02:14:15;;;;;;;4.03;2.38;;;;;;;13.78;92.71;100867.63;5046845;28;20061;-49
2023/09/15 02:16:42;;;;;;;6.95;3.13;;;;;;;13.79;92.90;100862.88;5036109;28;20052;-46
2023/09/15 02:19:09;;;;;;;7.70;2.42;;;;;;;13.77;92.80;100860.44;5038027;28;20059;-45
2023/09/15 02:21:36;;;;;;;5.35;2.50;;;;;;;13.76;92.98;100858.03;5045061;28;20044;-46
2023/09/15 02:24:04;;;;;;;10.68;3.38;;;;;;;13.76;93.06;100858.84;5047100;28;20044;-46
2023/09/15 02:26:30;;;;;;;3.88;2.10;;;;;;;13.76;93.11;100853.28;5051068;28;20115;-50
2023/09/15 02:28:57;;;;;;;4.95;2.05;;;;;;;13.76;93.12;100852.47;5052451;28;20406;-46
2023/09/15 02:31:24;;;;;;;7.38;2.90;;;;;;;13.74;93.26;100854.81;5050298;28;20110;-46
2023/09/15 02:33:51;;;;;;;6.38;2.00;;;;;;;13.71;93.44;100856.34;5051715;28;20041;-45
2023/09/15 02:36:18;;;;;;;8.52;2.45;;;;;;;13.70;93.51;100853.91;5051011;28;20099;-45
2023/09/15 02:38:45;;;;;;;5.55;2.10;;;;;;;13.70;93.59;100860.28;5050945;28;20041;-46
2023/09/15 02:41:12;;;;;;;8.13;3.00;;;;;;;13.67;93.89;100861.00;5050512;28;20106;-48
2023/09/15 02:43:40;;;;;;;8.10;2.72;;;;;;;13.66;93.89;100858.59;5045287;28;20472;-46
2023/09/15 02:46:07;;;;;;;5.90;2.38;;;;;;;13.67;93.98;100854.63;5051436;28;20044;-46
2023/09/15 02:48:34;;;;;;;7.97;3.40;;;;;;;13.67;93.72;100849.88;5051452;28;20045;-46
2023/09/15 02:51:01;;;;;;;6.45;3.25;;;;;;;13.64;93.88;100845.03;5051723;28;20099;-47
2023/09/15 02:53:29;;;;;;;10.77;3.45;;;;;;;13.62;93.85;100835.44;5051519;28;20049;-47
2023/09/15 02:56:00;;;;;;;8.93;3.83;;;;;;;13.59;93.77;100839.75;5039275;28;20049;-46
2023/09/15 02:58:27;;;;;;;5.22;3.20;;;;;;;13.56;93.89;100843.25;5047300;28;20045;-46
2023/09/15 03:00:54;;;;;;;7.57;3.75;;;;;;;13.55;93.86;100844.44;5084881;22;20037;-44
2023/09/15 03:03:24;;;;;;;7.40;3.47;;;;;;;13.50;94.04;100839.16;5064007;28;20059;-44
2023/09/15 03:06:05;;;;;;;5.68;2.80;;;;;;;13.48;94.42;100840.66;5059922;28;20130;-46
2023/09/15 03:08:33;;;;;;;4.82;2.22;;;;;;;13.49;94.54;100839.50;5060051;28;20434;-46
2023/09/15 03:11:01;;;;;;;5.35;2.80;;;;;;;13.49;94.36;100842.28;5055775;28;20413;-48
2023/09/15 03:13:28;;;;;;;5.15;2.00;;;;;;;13.49;94.52;100837.53;5052366;28;20065;-49
2023/09/15 03:15:54;;;;;;;8.65;2.70;;;;;;;13.48;94.41;100830.34;5064780;28;20135;-46
2023/09/15 03:18:21;;;;;;;6.95;3.55;;;;;;;13.49;94.56;100825.59;5075354;28;20056;-46
2023/09/15 03:20:48;;;;;;;5.80;2.50;;;;;;;13.47;94.42;100817.63;5069059;28;20051;-46
2023/09/15 03:23:15;;;;;;;8.10;2.95;;;;;;;13.45;94.74;100814.38;5060870;28;20044;-46
2023/09/15 03:25:42;;;;;;;6.57;2.90;;;;;;;13.45;94.59;100808.03;5062189;28;20059;-46
2023/09/15 03:28:10;;;;;;;9.10;2.65;;;;;;;13.45;94.72;100806.03;5061561;28;20140;-46
2023/09/15 03:30:37;;;;;;;4.95;3.00;;;;;;;13.48;94.97;100808.09;5069574;28;20040;-48
2023/09/15 03:33:07;;;;;;;7.50;4.00;;;;;;;13.50;95.03;100805.78;5059014;28;20049;-47
2023/09/15 03:35:34;;;;;;;11.57;3.85;;;;;;;13.52;95.01;100803.44;5068435;28;20485;-46
2023/09/15 03:38:00;;;;;;;9.82;4.40;;;;;;;13.51;95.12;100796.25;5055054;28;20049;-46
2023/09/15 03:40:30;;;;;;;9.85;4.15;;;;;;;13.51;95.17;100801.00;5067104;28;20482;-47
2023/09/15 03:42:56;;;;;;;6.10;3.05;;;;;;;13.51;95.13;100810.16;5066769;28;20440;-46
2023/09/15 03:45:23;;;;;;;7.30;3.33;;;;;;;13.49;95.17;100804.16;5069217;28;20605;-47
2023/09/15 03:47:50;;;;;;;6.82;3.45;;;;;;;13.49;95.17;100798.59;5069847;28;20045;-46
2023/09/15 03:50:21;;;;;;;7.47;3.95;;;;;;;13.49;95.36;100797.78;5070094;28;20063;-51
2023/09/15 03:52:48;;;;;;;5.72;3.10;;;;;;;13.46;95.17;100790.16;5076913;28;20113;-47
2023/09/15 03:55:17;;;;;;;6.68;2.72;;;;;;;13.43;95.33;100789.72;5070016;28;20513;-46
2023/09/15 03:57:44;;;;;;;4.85;3.35;;;;;;;13.42;95.50;100792.88;5067495;28;20084;-46
2023/09/15 04:00:15;;;;;;;6.20;3.85;;;;;;;13.40;95.65;100796.03;5059129;28;20049;-47
2023/09/15 04:02:42;;;;;;;6.15;3.60;;;;;;;13.41;95.67;100796.81;5066610;28;20083;-47
2023/09/15 04:05:10;;;;;;;6.88;2.85;;;;;;;13.42;95.89;100784.56;5069358;28;20448;-48
2023/09/15 04:07:38;;;;;;;4.35;2.88;;;;;;;13.42;95.83;100782.56;5064303;28;20088;-47
2023/09/15 04:10:05;;;;;;;8.00;4.10;;;;;;;13.42;95.98;100776.22;5070424;28;20068;-46
2023/09/15 04:12:34;;;;;;;7.70;3.30;;;;;;;13.43;96.04;100786.13;5070620;28;20052;-47
2023/09/15 04:15:04;;;;;;;6.63;3.83;;;;;;;13.42;96.05;100776.22;5069873;28;20048;-46
2023/09/15 04:17:32;;;;;;;7.00;3.53;;;;;;;13.41;95.94;100766.25;5070409;28;20047;-46
2023/09/15 04:19:58;;;;;;;8.48;3.80;;;;;;;13.38;95.99;100759.44;5070605;28;20073;-47
2023/09/15 04:22:27;;;;;;;3.90;2.58;;;;;;;13.39;96.19;100760.25;5070345;28;20056;-47
2023/09/15 04:24:54;;;;;;;12.18;4.85;;;;;;;13.36;96.12;100752.63;5069608;28;20036;-46
2023/09/15 04:27:20;;;;;;;4.80;3.20;;;;;;;13.34;96.05;100741.84;5070795;28;20432;-46
2023/09/15 04:29:53;;;;;;;8.77;3.70;;;;;;;13.32;96.00;100748.94;5070675;28;20122;-46
2023/09/15 04:32:20;;;;;;;4.57;3.28;;;;;;;13.32;96.26;100748.94;5070444;28;20563;-46
2023/09/15 04:34:46;;;;;;;4.90;2.97;;;;;;;13.31;96.33;100758.47;5069564;28;20045;-46
2023/09/15 04:37:13;;;;;;;4.72;2.97;;;;;;;13.29;96.46;100761.59;5070103;28;20503;-46
2023/09/15 04:39:41;;;;;;;5.13;3.08;;;;;;;13.30;96.83;100767.97;5068559;28;20040;-46
2023/09/15 04:42:10;;;;;;;5.50;3.42;;;;;;;13.31;96.80;100764.03;5057568;28;20049;-46
2023/09/15 04:44:37;;;;;;;4.95;3.35;;;;;;;13.32;96.71;100771.19;5069268;28;20051;-48
2023/09/15 04:47:04;;;;;;;10.38;3.53;;;;;;;13.32;96.80;100768.41;5058861;28;20053;-48
2023/09/15 04:49:31;;;;;;;7.82;3.10;;;;;;;13.33;96.91;100767.25;5058399;28;20052;-47
2023/09/15 04:51:58;;;;;;;5.85;2.50;;;;;;;13.31;96.87;100756.50;5067537;28;20087;-47
2023/09/15 04:54:26;;;;;;;4.88;2.53;;;;;;;13.31;96.88;100764.03;5063501;28;20041;-48
2023/09/15 04:56:56;;;;;;;5.50;2.80;;;;;;;13.31;96.92;100764.03;5063120;28;20306;-48
2023/09/15 04:59:25;;;;;;;7.85;3.42;;;;;;;13.30;96.83;100763.22;5062636;28;20051;-52
2023/09/15 05:01:52;;;;;;;4.65;2.45;;;;;;;13.28;96.78;100760.00;5056223;28;20458;-48
2023/09/15 05:04:20;;;;;;;4.97;3.08;;;;;;;13.28;96.85;100759.19;5072461;28;20723;-46
2023/09/15 05:06:49;;;;;;;3.83;2.67;;;;;;;13.24;96.92;100759.09;5070206;28;20118;-47
2023/09/15 05:09:20;;;;;;;11.48;3.70;;;;;;;13.18;96.83;100760.56;5064890;28;20144;-47
2023/09/15 05:11:47;;;;;;;5.82;3.00;;;;;;;13.13;97.13;100760.81;5069927;28;20048;-47
2023/09/15 05:14:14;;;;;;;4.22;2.70;;;;;;;13.16;97.36;100773.19;5059072;28;20045;-48
2023/09/15 05:16:40;;;;;;;5.40;2.80;;;;;;;13.17;97.55;100763.69;5063845;28;20424;-46
2023/09/15 05:19:07;;;;;;;6.57;2.85;;;;;;;13.19;97.52;100764.94;5068512;28;20044;-48
2023/09/15 05:21:35;;;;;;;3.67;2.60;;;;;;;13.21;97.56;100764.59;5050704;28;20147;-47
2023/09/15 05:24:04;;;;;;;7.20;2.50;;;;;;;13.21;97.40;100761.81;5062046;28;20159;-52
2023/09/15 05:26:31;;;;;;;6.95;3.42;;;;;;;13.20;97.53;100771.31;5071015;28;20110;-46
2023/09/15 05:28:57;;;;;;;4.93;2.70;;;;;;;13.20;97.50;100769.34;5072531;28;20370;-45
2023/09/15 05:31:27;;;;;;;6.00;3.00;;;;;;;13.22;97.64;100777.31;5072552;28;20048;-48
2023/09/15 05:33:55;;;;;;;3.85;2.58;;;;;;;13.22;97.67;100775.34;5072328;28;20617;-47
2023/09/15 05:36:22;;;;;;;3.97;2.45;;;;;;;13.21;97.78;100786.84;5042069;28;20044;-46
2023/09/15 05:38:49;;;;;;;3.90;2.72;;;;;;;13.20;98.21;100779.66;5071633;28;20097;-46
2023/09/15 05:41:16;;;;;;;6.70;2.55;;;;;;;13.19;98.02;100778.03;5066366;28;20124;-48
2023/09/15 05:43:43;;;;;;;3.65;2.50;;;;;;;13.19;98.07;100778.03;5072361;28;20127;-46
2023/09/15 05:46:10;;;;;;;4.82;2.17;;;;;;;13.16;98.10;100778.75;5072898;28;20094;-46
2023/09/15 05:48:37;;;;;;;4.65;2.67;;;;;;;13.19;98.47;100780.81;5072480;28;20041;-47
2023/09/15 05:51:06;;;;;;;4.38;2.05;;;;;;;13.21;98.15;100781.28;5072665;28;20549;-48
2023/09/15 05:53:34;;;;;;;6.53;2.20;;;;;;;13.21;98.11;100775.72;5060293;28;20049;-45
2023/09/15 05:56:02;;;;;;;3.58;2.63;;;;;;;13.22;98.26;100782.88;5054512;28;20044;-46
2023/09/15 05:58:28;;;;;;;3.72;2.33;;;;;;;13.22;98.13;100777.31;5072631;28;20037;-46
2023/09/15 06:00:56;;;;;;;5.72;2.35;;;;;;;13.21;98.31;100787.63;5072412;28;20109;-45
2023/09/15 06:03:24;;;;;;;3.38;2.40;;;;;;;13.20;98.19;100785.22;5070055;28;20044;-46
2023/09/15 06:05:51;;;;;;;5.53;2.70;;;;;;;13.18;98.31;100784.78;5066197;28;20040;-46
2023/09/15 06:08:21;;;;;;;4.88;2.13;;;;;;;13.13;98.23;100776.72;5073031;28;20490;-46
2023/09/15 06:10:48;;;;;;;3.38;2.13;;;;;;;13.11;98.38;100785.41;5072121;28;20058;-46
2023/09/15 06:13:15;;;;;;;5.63;2.25;;;;;;;13.09;98.32;100786.94;5068335;28;20144;-48
2023/09/15 06:15:42;;;;;;;3.97;2.45;;;;;;;13.08;98.46;100780.56;5060758;28;20163;-46
2023/09/15 06:18:09;;;;;;;4.13;1.95;;;;;;;13.06;98.38;100779.28;5073977;28;20059;-46
2023/09/15 06:20:36;;;;;;;5.97;2.35;;;;;;;13.06;98.21;100793.19;5069919;28;20453;-47
2023/09/15 06:23:03;;;;;;;6.82;2.47;;;;;;;13.05;98.43;100778.47;5070093;28;20383;-46
2023/09/15 06:25:30;;;;;;;4.80;1.95;;;;;;;13.04;98.17;100785.22;5064093;28;20413;-46
2023/09/15 06:27:59;;;;;;;2.85;1.52;;;;;;;13.03;98.43;100793.91;5071001;28;20489;-47
2023/09/15 06:30:45;;;;;;;7.93;2.65;;;;;;;13.02;98.27;100783.97;5067185;28;20044;-46
2023/09/15 06:33:12;;;;;;;6.00;2.38;;;;;;;12.99;98.30;100773.56;5068632;28;20592;-48
2023/09/15 06:35:40;;;;;;;5.47;2.05;;;;;;;12.98;98.17;100771.94;5059236;28;20048;-45
2023/09/15 06:38:10;;;;;;;6.35;3.92;;;;;;;12.95;98.38;100767.91;5064102;28;20036;-48
2023/09/15 06:40:37;;;;;;;3.63;2.08;;;;;;;12.97;98.73;100770.34;5069764;28;20071;-46
2023/09/15 06:43:06;;;;;;;3.20;2.38;;;;;;;12.98;98.67;100777.50;5052175;28;20041;-46
2023/09/15 06:45:34;;;;;;;6.75;3.20;;;;;;;13.01;98.81;100782.34;5070834;28;20048;-47
2023/09/15 06:48:01;;;;;;;8.48;3.72;;;;;;;13.02;98.60;100783.97;5053833;28;20048;-46
2023/09/15 06:50:28;;;;;;;7.82;3.33;;;;;;;13.03;98.70;100774.44;5053756;28;20056;-48
2023/09/15 06:52:55;;;;;;;10.15;4.63;;;;;;;13.01;98.65;100771.22;5082643;28;20056;-46
2023/09/15 06:55:22;;;;;;;4.32;3.42;;;;;;;13.00;98.66;100778.75;5071088;28;20044;-47
2023/09/15 06:57:50;;;;;;;6.97;4.10;;;;;;;12.98;98.78;100778.31;5069102;28;20068;-46
2023/09/15 07:00:17;;;;;;;8.30;4.55;;;;;;;12.96;98.81;100777.88;5068738;28;20044;-45
2023/09/15 07:02:43;;;;;;;8.20;4.20;;;;;;;12.96;98.98;100786.22;5070158;28;20098;-46
2023/09/15 07:05:11;;;;;;;6.38;4.32;;;;;;;12.96;98.96;100779.84;5071416;28;20072;-47
2023/09/15 07:07:38;;;;;;;11.10;3.97;;;;;;;12.96;99.10;100779.84;5036280;28;20044;-44
2023/09/15 07:10:07;;;;;;;6.65;4.10;;;;;;;12.93;99.04;100769.44;5071223;28;20573;-44
2023/09/15 07:12:34;;;;;;;10.98;3.90;;;;;;;12.93;99.25;100769.44;5069727;28;20051;-44
2023/09/15 07:15:04;;;;;;;8.18;4.93;;;;;;;12.90;99.32;100773.75;5053394;28;20048;-45
2023/09/15 07:17:30;;;;;;;8.93;3.42;;;;;;;12.90;99.42;100761.81;5065077;28;20056;-46
2023/09/15 07:19:57;;;;;;;6.90;3.63;;;;;;;12.92;99.40;100756.72;5060495;28;20498;-45
2023/09/15 07:22:26;;;;;;;8.52;3.40;;;;;;;12.91;99.49;100744.81;5066095;28;20044;-44
2023/09/15 07:24:53;;;;;;;9.95;3.15;;;;;;;12.93;99.47;100752.78;5067254;28;20048;-45
2023/09/15 07:27:22;;;;;;;6.75;3.30;;;;;;;12.93;99.26;100755.53;5056356;28;20044;-45
2023/09/15 07:29:50;;;;;;;5.72;2.63;;;;;;;12.93;99.46;100758.31;5066419;28;20161;-47
2023/09/15 07:32:17;;;;;;;4.75;2.75;;;;;;;12.92;99.41;100759.50;5058746;28;20048;-47
2023/09/15 07:34:44;;;;;;;6.45;3.10;;;;;;;12.91;99.62;100749.56;5068240;28;20045;-45
2023/09/15 07:37:11;;;;;;;7.07;2.90;;;;;;;12.91;99.44;100749.56;5071066;28;20044;-46
2023/09/15 07:39:38;;;;;;;8.05;3.30;;;;;;;12.90;99.58;100757.06;5064709;28;20132;-44
2023/09/15 07:42:08;;;;;;;8.40;3.83;;;;;;;12.91;99.58;100755.09;5065589;28;20394;-53
2023/09/15 07:44:36;;;;;;;5.28;2.85;;;;;;;12.89;99.57;100763.81;5062099;28;20036;-43
2023/09/15 07:47:06;;;;;;;5.28;2.70;;;;;;;12.89;99.73;100774.13;5066493;28;20044;-44
2023/09/15 07:49:33;;;;;;;7.13;2.95;;;;;;;12.87;99.72;100776.47;5070501;28;20414;-48
2023/09/15 07:52:00;;;;;;;4.75;2.55;;;;;;;12.87;100.00;100768.91;5071738;28;20090;-47
2023/09/15 07:54:28;;;;;;;3.80;1.90;;;;;;;12.90;100.00;100765.41;5066979;28;20049;-45
2023/09/15 07:56:55;;;;;;;5.80;2.85;;;;;;;12.94;100.00;100759.94;5068575;28;20064;-46
2023/09/15 07:59:21;;;;;;;3.03;2.05;;;;;;;12.97;99.98;100756.44;5061210;28;20045;-46
2023/09/15 08:01:48;;;;;;;9.20;2.30;;;;;;;12.98;100.00;100758.03;5062382;28;20444;-45
2023/09/15 08:04:15;;;;;;;7.38;2.20;;;;;;;13.00;100.00;100758.50;5066188;28;20053;-44
2023/09/15 08:06:43;;;;;;;5.60;2.25;;;;;;;13.01;100.00;100749.81;5071184;28;20045;-43
2023/09/15 08:09:10;;;;;;;6.35;2.60;;;;;;;13.03;100.00;100743.88;5051386;28;20074;-44
2023/09/15 08:11:38;;;;;;;4.63;2.33;;;;;;;13.04;100.00;100742.72;5068474;28;20406;-44
2023/09/15 08:14:05;;;;;;;4.88;2.10;;;;;;;13.03;100.00;100752.22;5063236;28;20044;-45
2023/09/15 08:16:32;;;;;;;4.72;1.98;;;;;;;13.02;100.00;100754.22;5062230;28;20529;-46
2023/09/15 08:18:59;;;;;;;6.28;2.50;;;;;;;13.05;100.00;100772.13;5070163;28;20510;-45
2023/09/15 08:21:26;;;;;;;4.10;1.52;;;;;;;13.05;100.00;100775.69;5064630;28;20048;-44
2023/09/15 08:23:53;;;;;;;6.95;2.03;;;;;;;13.06;100.00;100771.75;5067724;28;20401;-44
2023/09/15 08:26:24;;;;;;;7.72;2.22;;;;;;;13.08;100.00;100772.22;5064329;28;20048;-44
2023/09/15 08:29:04;;;;;;;7.97;1.63;;;;;;;13.11;100.00;100779.03;5067766;28;20055;-45
2023/09/15 08:31:31;;;;;;;6.88;1.95;;;;;;;13.11;100.00;100781.81;5056678;28;20048;-44
2023/09/15 08:33:58;;;;;;;6.70;1.83;;;;;;;13.10;100.00;100780.22;5068990;28;20597;-47
2023/09/15 08:36:26;;;;;;;5.10;1.58;;;;;;;13.10;100.00;100777.44;5074111;28;20040;-47
2023/09/15 08:38:53;;;;;;;7.20;1.65;;;;;;;13.10;100.00;100785.78;5071900;28;20037;-44
2023/09/15 08:41:20;;;;;;;5.63;1.83;;;;;;;13.11;100.00;100781.81;5069863;28;20041;-46
2023/09/15 08:43:46;;;;;;;4.57;1.63;;;;;;;13.13;100.00;100777.50;5071896;28;20438;-45
2023/09/15 08:46:15;;;;;;;4.15;1.40;;;;;;;13.17;100.00;100775.63;5073536;28;20135;-47
2023/09/15 08:48:48;;;;;;;3.85;1.80;;;;;;;13.18;100.00;100776.44;5065251;28;20064;-45
2023/09/15 08:51:15;;;;;;;5.60;1.55;;;;;;;13.19;100.00;100769.69;5067558;28;20048;-48
2023/09/15 08:53:43;;;;;;;4.78;1.50;;;;;;;13.20;100.00;100779.66;5057982;28;20045;-44
2023/09/15 08:56:10;;;;;;;3.33;1.55;;;;;;;13.20;100.00;100786.03;5064895;28;20048;-45
2023/09/15 08:58:37;;;;;;;3.15;1.35;;;;;;;13.20;100.00;100793.56;5081809;28;20044;-44
2023/09/15 09:01:07;;;;;;;3.63;1.70;;;;;;;13.19;100.00;100786.38;5071397;28;20114;-48
2023/09/15 09:03:36;;;;;;;4.38;1.80;;;;;;;13.21;100.00;100789.63;5067898;28;20067;-46
2023/09/15 09:06:07;;;;;;;4.22;1.90;;;;;;;13.22;100.00;100782.88;5070190;28;20052;-47
2023/09/15 09:08:37;;;;;;;4.88;1.77;;;;;;;13.24;100.00;100788.88;5064244;28;20048;-44
2023/09/15 09:11:04;;;;;;;2.95;2.22;;;;;;;13.26;100.00;100784.56;5069364;28;20381;-47
2023/09/15 09:13:30;;;;;;;4.00;1.85;;;;;;;13.32;100.00;100783.13;5068777;28;20052;-45
2023/09/15 09:16:13;;;;;;;4.50;1.58;;;;;;;13.37;100.00;100784.81;5062855;28;20098;-45
2023/09/15 09:18:40;;;;;;;6.13;2.17;;;;;;;13.37;100.00;100784.81;5071509;28;20417;-46
2023/09/15 09:21:08;;;;;;;4.00;1.50;;;;;;;13.36;100.00;100797.13;5067803;28;20049;-45
2023/09/15 09:23:35;;;;;;;6.10;1.63;;;;;;;13.35;100.00;100798.28;5068570;28;20501;-44
2023/09/15 09:26:11;;;;;;;3.88;1.58;;;;;;;13.35;100.00;100792.72;5069340;28;20516;-44
2023/09/15 09:28:38;;;;;;;3.13;1.45;;;;;;;13.35;100.00;100787.97;5073344;28;20051;-46
2023/09/15 09:31:05;;;;;;;6.65;2.38;;;;;;;13.38;100.00;100794.78;5066909;28;20429;-47
2023/09/15 09:33:32;;;;;;;3.78;1.42;;;;;;;13.38;100.00;100800.34;5070542;28;20048;-44
2023/09/15 09:36:09;;;;;;;2.95;1.50;;;;;;;13.36;100.00;100792.38;5069762;28;20115;-46
2023/09/15 09:38:36;;;;;;;2.95;1.27;;;;;;;13.37;100.00;100795.94;5069206;28;20079;-46
2023/09/15 09:41:06;;;;;;;2.47;1.42;;;;;;;13.36;100.00;100799.91;5070361;28;20504;-46
2023/09/15 09:43:34;;;;;;;3.10;1.90;;;;;;;13.39;100.00;100794.44;5053354;28;20440;-46
2023/09/15 09:46:03;;;;;;;1.58;1.20;;;;;;;13.41;100.00;100797.66;5070559;28;20407;-48
2023/09/15 09:48:32;;;;;;;3.28;1.30;;;;;;;13.42;100.00;100790.13;5070323;28;20033;-47
2023/09/15 09:51:01;;;;;;;4.80;1.88;;;;;;;13.43;100.00;100800.03;5065537;28;20063;-46
2023/09/15 09:53:32;;;;;;;3.47;1.60;;;;;;;13.46;100.00;100798.50;5061041;28;20060;-46
2023/09/15 09:56:00;;;;;;;4.82;1.40;;;;;;;13.50;100.00;100793.84;5061131;28;20111;-46
2023/09/15 09:58:27;;;;;;;5.57;1.73;;;;;;;13.57;100.00;100778.13;5048301;28;20081;-45
2023/09/15 10:00:54;;;;;;;3.65;1.15;;;;;;;13.64;100.00;100761.56;5065979;28;20093;-45
2023/09/15 10:03:21;;;;;;;4.60;1.25;;;;;;;13.74;100.00;100769.34;5067316;28;20045;-45
2023/09/15 10:05:49;;;;;;;11.32;2.65;;;;;;;13.81;100.00;100783.41;5058491;28;20053;-48
2023/09/15 10:08:17;;;;;;;4.13;0.98;;;;;;;13.84;100.00;100777.13;5071769;28;20513;-46
2023/09/15 10:10:46;;;;;;;4.43;1.95;;;;;;;13.87;100.00;100770.78;5067219;28;20052;-47
2023/09/15 10:13:13;;;;;;;4.15;1.00;;;;;;;13.88;100.00;100769.63;5065683;28;20033;-45
2023/09/15 10:15:41;;;;;;;2.67;1.50;;;;;;;13.89;100.00;100762.91;5059038;28;20098;-45
2023/09/15 10:18:13;;;;;;;3.17;0.90;;;;;;;13.82;100.00;100776.66;5071479;28;20075;-47
2023/09/15 10:20:43;;;;;;;6.50;1.25;;;;;;;13.75;100.00;100772.91;5062879;28;20064;-46
2023/09/15 10:23:13;;;;;;;4.03;1.13;;;;;;;13.72;100.00;100768.91;5064087;28;20037;-45
2023/09/15 10:25:54;;;;;;;3.22;1.50;;;;;;;13.66;100.00;100777.91;5060713;28;20119;-46
2023/09/15 10:28:24;;;;;;;2.70;1.40;;;;;;;13.62;100.00;100769.47;5055403;28;20044;-50
2023/09/15 10:30:55;;;;;;;3.67;1.38;;;;;;;13.60;100.00;100769.06;5059310;28;20044;-46
2023/09/15 10:33:25;;;;;;;2.40;1.42;;;;;;;13.60;100.00;100776.59;5057954;28;20044;-54
2023/09/15 10:35:52;;;;;;;3.17;1.85;;;;;;;13.58;100.00;100793.63;5044143;28;20056;-45
2023/09/15 10:38:29;;;;;;;4.53;1.70;;;;;;;13.59;100.00;100800.81;5067671;28;20049;-46
2023/09/15 10:41:03;;;;;;;2.47;1.10;;;;;;;13.56;100.00;100797.94;5063510;28;20156;-44
2023/09/15 10:43:32;;;;;;;2.38;1.50;;;;;;;13.54;100.00;100801.09;5046266;28;20056;-45
2023/09/15 10:46:05;;;;;;;5.18;1.45;;;;;;;13.49;100.00;100798.59;5066550;28;20094;-45
2023/09/15 10:48:39;;;;;;;2.85;1.30;;;;;;;13.46;100.00;100788.19;5069209;28;20051;-49
2023/09/15 10:51:07;;;;;;;4.18;1.15;;;;;;;13.46;100.00;100782.63;5065580;28;20056;-45
2023/09/15 10:54:04;;;;;;;2.72;1.50;;;;;;;13.46;100.00;100779.84;5061812;28;20497;-42
2023/09/15 10:56:32;;;;;;;2.30;1.00;;;;;;;13.46;100.00;100782.63;5060534;28;20405;-44
2023/09/15 10:59:00;;;;;;;3.70;0.77;;;;;;;13.47;100.00;100775.91;5060917;28;20064;-43
2023/09/15 11:01:27;;;;;;;3.80;1.17;;;;;;;13.51;100.00;100774.00;5069645;28;20037;-43
2023/09/15 11:03:55;;;;;;;2.88;1.10;;;;;;;13.56;100.00;100772.91;5060610;28;20060;-42
2023/09/15 11:06:25;;;;;;;3.50;1.20;;;;;;;13.57;100.00;100771.75;5062411;28;20045;-43
2023/09/15 11:08:52;;;;;;;1.88;0.82;;;;;;;13.62;100.00;100779.81;5065035;28;20041;-46
2023/09/15 11:11:19;;;;;;;3.13;1.08;;;;;;;13.66;100.00;100775.91;5070722;28;20421;-43
2023/09/15 11:13:46;;;;;;;3.75;1.27;;;;;;;13.68;100.00;100781.94;5066392;28;20097;-46
2023/09/15 11:16:13;;;;;;;1.30;1.10;;;;;;;13.66;100.00;100769.56;5056846;28;20115;-45
2023/09/15 11:18:40;;;;;;;1.27;0.70;;;;;;;13.65;100.00;100773.50;5065168;28;20041;-46
2023/09/15 11:21:07;;;;;;;2.80;1.08;;;;;;;13.64;100.00;100783.81;5071026;28;20135;-47
2023/09/15 11:23:34;;;;;;;3.20;0.98;;;;;;;13.59;100.00;100774.97;5063900;28;20051;-44
2023/09/15 11:26:08;;;;;;;6.20;1.17;;;;;;;13.56;100.00;100781.25;5044281;28;20045;-49
2023/09/15 11:28:38;;;;;;;4.22;1.30;;;;;;;13.56;100.00;100781.25;5066526;28;20064;-44